Speedwell, Virginia
Current Conditions -  °F | °C
As of 2:55 PM on Thursday 18 Dec 2014 (Local Time) from KMKJ Reporting Station
Overcast Overcast  
Wind Chill: 33°   Ceiling: 5000
Heat Index: 40°   Visibility: 10mi
Dew Point: 18°   Wind: 13mph
Humidity: 40%   Direction: 260°W
Pressure: 30.08"   Gusts: NA
Location:  36.81°N, 81.17°W
Report Text: KMKJ 181955Z AUTO 26011KT 10SM OVC050 05/M08 A3008 RMK AO2 T00471079
Loading
Personal Weather Stations






























Interactive Weather Map New forecast layout! Learn more

10-Day Weather Forecast

Advertisements
Track Severe Weather on mobile